createdAt,value
2022-11-07T00:02:14.804Z,5.05
2022-11-07T00:04:42.972Z,5.02
2022-11-07T00:07:11.338Z,5.07
2022-11-07T00:09:39.317Z,5.14
2022-11-07T00:12:07.709Z,5.18
2022-11-07T00:14:35.967Z,5.16
2022-11-07T00:17:03.999Z,5.16
2022-11-07T00:19:32.359Z,5.19
2022-11-07T00:22:00.732Z,5.22
2022-11-07T00:24:28.697Z,5.26
2022-11-07T00:26:57.173Z,5.34
2022-11-07T00:29:25.290Z,5.41
2022-11-07T00:31:53.345Z,5.48
2022-11-07T00:34:21.347Z,5.53
2022-11-07T00:36:49.407Z,5.58
2022-11-07T00:39:18.044Z,5.65
2022-11-07T00:41:49.427Z,5.75
2022-11-07T00:44:17.690Z,5.87
2022-11-07T00:46:45.671Z,6.00
2022-11-07T00:49:13.801Z,6.10
2022-11-07T00:51:42.153Z,6.17
2022-11-07T00:54:10.323Z,6.26
2022-11-07T00:56:38.336Z,6.37
2022-11-07T00:59:06.587Z,6.48
2022-11-07T01:01:36.124Z,6.58
2022-11-07T01:04:23.539Z,6.69
2022-11-07T01:06:51.622Z,6.77
2022-11-07T01:09:21.753Z,6.87
2022-11-07T01:11:49.971Z,6.99
2022-11-07T01:14:20.842Z,7.08
2022-11-07T01:16:48.965Z,7.17
2022-11-07T01:19:18.484Z,7.22
2022-11-07T01:21:46.865Z,7.23
2022-11-07T01:24:16.714Z,7.23
2022-11-07T01:26:49.481Z,7.27
2022-11-07T01:29:19.321Z,7.29
2022-11-07T01:31:48.508Z,7.27
2022-11-07T01:34:17.919Z,7.30
2022-11-07T01:36:46.213Z,7.35
2022-11-07T01:39:14.592Z,7.39
2022-11-07T01:41:43.714Z,7.43
2022-11-07T01:44:11.683Z,7.43
2022-11-07T01:46:44.777Z,7.41
2022-11-07T01:49:20.771Z,7.44
2022-11-07T01:51:48.738Z,7.45
2022-11-07T01:54:20.380Z,7.47
2022-11-07T01:56:49.459Z,7.46
2022-11-07T01:59:21.455Z,7.49
2022-11-07T02:01:50.654Z,7.51
2022-11-07T02:04:20.598Z,7.50
2022-11-07T02:07:09.866Z,7.51
2022-11-07T02:09:38.050Z,7.43
2022-11-07T02:12:06.913Z,7.40
2022-11-07T02:14:35.079Z,7.44
2022-11-07T02:17:03.388Z,7.46
2022-11-07T02:19:42.380Z,7.43
2022-11-07T02:22:41.124Z,7.47
2022-11-07T02:25:15.612Z,7.54
2022-11-07T02:27:45.431Z,7.57
2022-11-07T02:30:20.494Z,7.60
2022-11-07T02:32:48.857Z,7.64
2022-11-07T02:35:37.035Z,7.66
2022-11-07T02:38:07.743Z,7.73
2022-11-07T02:40:36.688Z,7.62
2022-11-07T02:43:06.932Z,7.58
2022-11-07T02:45:37.643Z,7.63
2022-11-07T02:48:06.217Z,7.65
2022-11-07T02:50:34.223Z,7.71
2022-11-07T02:53:02.280Z,7.76
2022-11-07T02:55:30.360Z,7.84
2022-11-07T02:57:58.625Z,7.90
2022-11-07T03:00:26.555Z,7.99
2022-11-07T03:02:55.008Z,8.10
2022-11-07T03:05:23.262Z,8.19
2022-11-07T03:07:51.328Z,8.23
2022-11-07T03:10:19.869Z,8.24
2022-11-07T03:12:47.856Z,8.25
2022-11-07T03:15:16.338Z,8.29
2022-11-07T03:17:44.414Z,8.30
2022-11-07T03:20:12.924Z,8.34
2022-11-07T03:22:40.907Z,8.37
2022-11-07T03:25:09.173Z,8.40
2022-11-07T03:27:46.366Z,8.41
2022-11-07T03:30:14.915Z,8.44
2022-11-07T03:32:43.442Z,8.44
2022-11-07T03:35:11.745Z,8.46
2022-11-07T03:37:40.035Z,8.48
2022-11-07T03:40:08.878Z,8.49
2022-11-07T03:42:40.835Z,8.52
2022-11-07T03:45:10.643Z,8.57
2022-11-07T03:47:40.764Z,8.58
2022-11-07T03:50:10.795Z,8.58
2022-11-07T03:52:39.079Z,8.63
2022-11-07T03:55:08.083Z,8.62
2022-11-07T03:57:36.268Z,8.66
2022-11-07T04:00:07.287Z,8.65
2022-11-07T04:02:40.529Z,8.66
2022-11-07T04:05:09.337Z,8.66
2022-11-07T04:07:37.499Z,8.65
2022-11-07T04:10:06.408Z,8.67
2022-11-07T04:12:53.106Z,8.69
2022-11-07T04:15:41.369Z,8.70
2022-11-07T04:18:09.780Z,8.71
2022-11-07T04:20:37.797Z,8.73
2022-11-07T04:23:05.925Z,8.68
2022-11-07T04:25:52.758Z,8.70
2022-11-07T04:28:21.056Z,8.75
2022-11-07T04:30:49.448Z,8.79
2022-11-07T04:33:17.753Z,8.82
2022-11-07T04:35:45.955Z,8.83
2022-11-07T04:38:14.687Z,8.82
2022-11-07T04:40:42.560Z,8.83
2022-11-07T04:43:10.854Z,8.80
2022-11-07T04:45:40.587Z,8.78
2022-11-07T04:48:10.908Z,8.78
2022-11-07T04:50:39.910Z,8.79
2022-11-07T04:53:07.934Z,8.84
2022-11-07T04:55:35.855Z,8.87
2022-11-07T04:58:03.967Z,8.88
2022-11-07T05:00:31.898Z,8.92
2022-11-07T05:03:00.385Z,8.97
2022-11-07T05:05:29.135Z,9.02
2022-11-07T05:07:57.181Z,9.06
2022-11-07T05:10:28.572Z,9.09
2022-11-07T05:12:56.822Z,9.07
2022-11-07T05:15:25.026Z,9.09
2022-11-07T05:17:53.178Z,9.11
2022-11-07T05:20:30.635Z,9.13
2022-11-07T05:23:18.446Z,9.17
2022-11-07T05:25:49.179Z,9.20
2022-11-07T05:28:28.131Z,9.20
2022-11-07T05:31:02.012Z,9.16
2022-11-07T05:33:30.675Z,9.16
2022-11-07T05:36:18.240Z,9.01
2022-11-07T05:38:48.685Z,8.86
2022-11-07T05:41:18.601Z,8.84
2022-11-07T05:43:47.083Z,8.87
2022-11-07T05:46:16.009Z,8.96
2022-11-07T05:48:43.878Z,9.04
2022-11-07T05:51:11.923Z,9.09
2022-11-07T05:53:42.028Z,9.07
2022-11-07T05:56:10.220Z,9.13
2022-11-07T05:58:38.451Z,9.19
2022-11-07T06:01:07.194Z,9.26
2022-11-07T06:03:35.219Z,9.31
2022-11-07T06:06:03.588Z,9.34
2022-11-07T06:08:31.826Z,9.34
2022-11-07T06:11:04.954Z,9.33
2022-11-07T06:13:33.019Z,9.31
2022-11-07T06:16:01.270Z,9.32
2022-11-07T06:18:29.652Z,9.33
2022-11-07T06:21:01.101Z,9.33
2022-11-07T06:23:29.166Z,9.35
2022-11-07T06:25:57.582Z,9.31
2022-11-07T06:28:26.019Z,9.32
2022-11-07T06:30:54.411Z,9.34
2022-11-07T06:33:22.896Z,9.36
2022-11-07T06:35:50.873Z,9.38
2022-11-07T06:38:18.935Z,9.32
2022-11-07T06:40:47.044Z,9.29
2022-11-07T06:43:18.183Z,9.26
2022-11-07T06:45:47.774Z,9.33
2022-11-07T06:48:16.255Z,9.26
2022-11-07T06:50:44.284Z,9.26
2022-11-07T06:53:14.287Z,9.29
2022-11-07T06:55:42.962Z,9.35
2022-11-07T06:58:11.008Z,9.41
2022-11-07T07:00:39.287Z,9.46
2022-11-07T07:03:07.792Z,9.50
2022-11-07T07:05:36.043Z,9.52
2022-11-07T07:08:05.923Z,9.55
2022-11-07T07:10:38.144Z,9.55
2022-11-07T07:13:06.665Z,9.55
2022-11-07T07:15:49.416Z,9.55
2022-11-07T07:18:19.791Z,9.59
2022-11-07T07:20:49.711Z,9.58
2022-11-07T07:23:19.888Z,9.56
2022-11-07T07:25:48.356Z,9.52
2022-11-07T07:28:17.662Z,9.49
2022-11-07T07:30:51.543Z,9.50
2022-11-07T07:33:20.985Z,9.51
2022-11-07T07:35:48.840Z,9.54
2022-11-07T07:38:17.201Z,9.54
2022-11-07T07:40:45.431Z,9.60
2022-11-07T07:43:13.755Z,9.70
2022-11-07T07:45:42.363Z,9.80
2022-11-07T07:48:10.776Z,9.88
2022-11-07T07:50:39.089Z,9.99
2022-11-07T07:53:09.224Z,10.10
2022-11-07T07:55:37.674Z,10.21
2022-11-07T07:58:05.845Z,10.27
2022-11-07T08:00:34.662Z,10.34
2022-11-07T08:03:09.031Z,10.43
2022-11-07T08:05:38.828Z,10.45
2022-11-07T08:08:08.536Z,10.53
2022-11-07T08:10:43.863Z,10.67
2022-11-07T08:13:12.477Z,10.82
2022-11-07T08:15:40.696Z,10.91
2022-11-07T08:18:09.120Z,10.98
2022-11-07T08:20:37.975Z,10.99
2022-11-07T08:23:14.798Z,11.03
2022-11-07T08:25:56.661Z,11.09
2022-11-07T08:28:29.985Z,11.13
2022-11-07T08:31:03.202Z,11.22
2022-11-07T08:33:31.731Z,11.30
2022-11-07T08:36:01.858Z,11.37
2022-11-07T08:38:32.211Z,11.42
2022-11-07T08:41:00.478Z,11.48
2022-11-07T08:43:28.816Z,11.53
2022-11-07T08:45:57.823Z,11.61
2022-11-07T08:48:26.102Z,11.73
2022-11-07T08:50:56.161Z,11.76
2022-11-07T08:53:26.558Z,11.81
2022-11-07T08:56:08.306Z,11.87
2022-11-07T08:58:37.423Z,11.92
2022-11-07T09:01:09.639Z,11.97
2022-11-07T09:03:46.113Z,12.04
2022-11-07T09:06:16.199Z,12.09
2022-11-07T09:08:45.009Z,12.16
2022-11-07T09:11:16.101Z,12.22
2022-11-07T09:13:44.620Z,12.31
2022-11-07T09:16:12.904Z,12.43
2022-11-07T09:18:41.174Z,12.57
2022-11-07T09:21:09.170Z,12.77
2022-11-07T09:23:37.683Z,13.01
2022-11-07T09:26:07.836Z,13.19
2022-11-07T09:28:36.313Z,13.19
2022-11-07T09:31:05.762Z,13.28
2022-11-07T09:33:34.043Z,13.35
2022-11-07T09:36:03.641Z,13.51
2022-11-07T09:38:32.434Z,13.58
2022-11-07T09:41:05.731Z,13.46
2022-11-07T09:44:05.145Z,13.40
2022-11-07T09:46:48.694Z,13.38
2022-11-07T09:49:26.369Z,13.41
2022-11-07T09:52:03.573Z,13.32
2022-11-07T09:54:37.276Z,13.11
2022-11-07T09:57:05.434Z,13.03
2022-11-07T09:59:45.910Z,12.99
2022-11-07T10:02:20.990Z,12.92
2022-11-07T10:04:55.604Z,12.78
2022-11-07T10:07:32.966Z,12.67
2022-11-07T10:10:20.621Z,12.58
2022-11-07T10:13:14.027Z,12.41
2022-11-07T10:16:01.127Z,12.31
2022-11-07T10:18:50.632Z,12.17
2022-11-07T10:21:38.392Z,12.10
2022-11-07T10:24:22.640Z,12.06
2022-11-07T10:26:50.667Z,12.01
2022-11-07T10:29:21.304Z,11.93
2022-11-07T10:31:57.808Z,11.89
2022-11-07T10:34:38.261Z,11.92
2022-11-07T10:37:06.405Z,11.99
2022-11-07T10:39:34.437Z,12.06
2022-11-07T10:42:08.072Z,12.16
2022-11-07T10:44:36.310Z,12.25
2022-11-07T10:47:15.864Z,12.36
2022-11-07T10:49:55.972Z,12.47
2022-11-07T10:52:28.527Z,12.52
2022-11-07T10:55:06.902Z,12.50
2022-11-07T10:57:36.295Z,12.51
2022-11-07T11:00:08.475Z,12.53
2022-11-07T11:02:48.180Z,12.46
2022-11-07T11:05:25.442Z,12.44
2022-11-07T11:08:07.958Z,12.60
2022-11-07T11:10:39.228Z,12.67
2022-11-07T11:13:07.307Z,12.67
2022-11-07T11:15:45.843Z,12.73
2022-11-07T11:18:18.129Z,12.77
2022-11-07T11:20:56.901Z,12.92
2022-11-07T11:23:35.488Z,12.99
2022-11-07T11:26:06.833Z,12.98
2022-11-07T11:29:05.984Z,13.00
2022-11-07T11:31:46.980Z,13.07
2022-11-07T11:34:36.854Z,13.21
2022-11-07T11:37:11.710Z,13.31
2022-11-07T11:39:45.856Z,13.42
2022-11-07T11:42:32.746Z,13.53
2022-11-07T11:45:14.807Z,13.47
2022-11-07T11:47:52.227Z,13.47
2022-11-07T11:50:31.901Z,13.49
2022-11-07T11:53:01.021Z,13.59
2022-11-07T11:55:38.656Z,13.65
2022-11-07T11:58:39.238Z,13.74
2022-11-07T12:01:21.408Z,13.79
2022-11-07T12:03:49.641Z,13.84
2022-11-07T12:06:40.904Z,13.87
2022-11-07T12:09:27.791Z,13.82
2022-11-07T12:12:19.722Z,13.79
2022-11-07T12:14:59.728Z,13.69
2022-11-07T12:17:50.517Z,13.56
2022-11-07T12:20:30.598Z,13.33
2022-11-07T12:23:14.267Z,13.17
2022-11-07T12:26:21.504Z,13.01
2022-11-07T12:29:20.048Z,12.88
2022-11-07T12:31:59.699Z,12.75
2022-11-07T12:34:45.397Z,12.65
2022-11-07T12:37:28.196Z,12.60
2022-11-07T12:40:16.946Z,12.56
2022-11-07T12:42:55.902Z,12.56
2022-11-07T12:45:47.024Z,12.51
2022-11-07T12:48:28.015Z,12.47
2022-11-07T12:50:56.297Z,12.45
2022-11-07T12:53:40.776Z,12.48
2022-11-07T12:56:17.515Z,12.46
2022-11-07T12:58:47.492Z,12.45
2022-11-07T13:01:22.376Z,12.48
2022-11-07T13:04:09.344Z,12.51
2022-11-07T13:06:42.613Z,12.51
2022-11-07T13:09:28.507Z,12.47
2022-11-07T13:12:11.868Z,12.41
2022-11-07T13:14:45.586Z,12.36
2022-11-07T13:17:20.263Z,12.30
2022-11-07T13:20:05.209Z,12.23
2022-11-07T13:22:40.282Z,12.17
2022-11-07T13:25:22.646Z,12.14
2022-11-07T13:27:53.464Z,12.17
2022-11-07T13:30:32.131Z,12.15
2022-11-07T13:33:00.969Z,12.17
2022-11-07T13:35:30.547Z,12.20
2022-11-07T13:38:13.610Z,12.21
2022-11-07T13:40:47.244Z,12.19
2022-11-07T13:43:22.411Z,12.16
2022-11-07T13:45:58.348Z,12.18
2022-11-07T13:48:42.343Z,12.18
2022-11-07T13:51:23.361Z,12.18
2022-11-07T13:54:28.755Z,12.18
2022-11-07T13:57:06.741Z,12.19
2022-11-07T13:59:55.158Z,12.19
2022-11-07T14:02:31.257Z,12.19
2022-11-07T14:05:18.431Z,12.18
2022-11-07T14:07:49.863Z,12.15
2022-11-07T14:10:29.544Z,12.14
2022-11-07T14:13:29.849Z,12.12
2022-11-07T14:16:17.852Z,12.12
2022-11-07T14:19:07.463Z,12.08
2022-11-07T14:21:37.603Z,12.08
2022-11-07T14:24:23.387Z,12.06
2022-11-07T14:27:05.897Z,12.01
2022-11-07T14:29:34.542Z,11.96
2022-11-07T14:32:05.963Z,11.94
2022-11-07T14:34:36.140Z,11.91
2022-11-07T14:37:07.129Z,11.84
2022-11-07T14:39:36.411Z,11.77
2022-11-07T14:42:05.089Z,11.72
2022-11-07T14:44:54.028Z,11.67
2022-11-07T14:47:30.343Z,11.62
2022-11-07T14:50:02.031Z,11.56
2022-11-07T14:52:42.663Z,11.57
2022-11-07T14:55:27.653Z,11.56
2022-11-07T14:57:56.008Z,11.53
2022-11-07T15:00:24.613Z,11.50
2022-11-07T15:02:55.489Z,11.44
2022-11-07T15:05:26.063Z,11.39
2022-11-07T15:07:56.147Z,11.36
2022-11-07T15:10:34.270Z,11.30
2022-11-07T15:13:05.372Z,11.24
2022-11-07T15:15:35.733Z,11.22
2022-11-07T15:18:06.581Z,11.18
2022-11-07T15:20:38.400Z,11.17
2022-11-07T15:23:28.793Z,11.12
2022-11-07T15:25:59.560Z,11.10
2022-11-07T15:28:54.075Z,11.09
2022-11-07T15:31:24.400Z,11.09
2022-11-07T15:33:54.116Z,11.08
2022-11-07T15:36:22.699Z,11.09
2022-11-07T15:38:52.205Z,11.10
2022-11-07T15:41:20.266Z,11.11
2022-11-07T15:43:48.345Z,11.12
2022-11-07T15:46:22.454Z,11.11
2022-11-07T15:48:50.873Z,11.11
2022-11-07T15:51:19.225Z,11.14
2022-11-07T15:53:47.409Z,11.12
2022-11-07T15:56:19.795Z,11.11
2022-11-07T15:58:48.484Z,11.08
2022-11-07T16:01:16.956Z,11.07
2022-11-07T16:03:45.376Z,11.06
2022-11-07T16:06:26.363Z,11.03
2022-11-07T16:08:54.637Z,10.98
2022-11-07T16:11:23.447Z,10.97
2022-11-07T16:13:59.218Z,10.94
2022-11-07T16:16:37.483Z,10.92
2022-11-07T16:19:05.551Z,10.87
2022-11-07T16:21:33.999Z,10.86
2022-11-07T16:24:02.041Z,10.88
2022-11-07T16:26:30.557Z,10.91
2022-11-07T16:28:58.620Z,10.91
2022-11-07T16:31:27.110Z,10.89
2022-11-07T16:33:55.388Z,10.92
2022-11-07T16:36:26.495Z,10.93
2022-11-07T16:38:55.435Z,10.90
2022-11-07T16:41:23.682Z,10.89
2022-11-07T16:43:51.943Z,10.88
2022-11-07T16:46:23.173Z,10.89
2022-11-07T16:48:55.277Z,10.92
2022-11-07T16:51:23.765Z,10.93
2022-11-07T16:53:51.896Z,10.91
2022-11-07T16:56:30.341Z,10.90
2022-11-07T16:58:59.161Z,10.89
2022-11-07T17:01:29.100Z,10.92
2022-11-07T17:03:57.456Z,10.97
2022-11-07T17:06:29.509Z,10.98
2022-11-07T17:09:06.105Z,10.95
2022-11-07T17:11:37.806Z,10.92
2022-11-07T17:14:06.031Z,10.86
2022-11-07T17:16:36.897Z,10.84
2022-11-07T17:19:07.380Z,10.81
2022-11-07T17:21:37.825Z,10.81
2022-11-07T17:24:06.710Z,10.80
2022-11-07T17:26:37.754Z,10.80
2022-11-07T17:29:08.156Z,10.80
2022-11-07T17:31:36.162Z,10.77
2022-11-07T17:34:04.276Z,10.76
2022-11-07T17:36:46.264Z,10.72
2022-11-07T17:39:19.997Z,10.68
2022-11-07T17:41:50.188Z,10.64
2022-11-07T17:44:18.954Z,10.62
2022-11-07T17:46:48.918Z,10.56
2022-11-07T17:49:19.299Z,10.56
2022-11-07T17:51:48.248Z,10.54
2022-11-07T17:54:16.413Z,10.49
2022-11-07T17:56:44.702Z,10.48
2022-11-07T17:59:16.363Z,10.51
2022-11-07T18:01:45.055Z,10.52
2022-11-07T18:04:14.060Z,10.48
2022-11-07T18:06:43.359Z,10.46
2022-11-07T18:09:15.664Z,10.46
2022-11-07T18:11:44.600Z,10.45
2022-11-07T18:14:14.497Z,10.49
2022-11-07T18:16:42.744Z,10.53
2022-11-07T18:19:11.151Z,10.52
2022-11-07T18:21:39.230Z,10.55
2022-11-07T18:24:07.806Z,10.56
2022-11-07T18:26:37.121Z,10.58
2022-11-07T18:29:11.385Z,10.57
2022-11-07T18:31:43.218Z,10.59
2022-11-07T18:34:13.184Z,10.57
2022-11-07T18:36:43.369Z,10.55
2022-11-07T18:39:17.860Z,10.55
2022-11-07T18:41:46.076Z,10.55
2022-11-07T18:44:15.097Z,10.53
2022-11-07T18:46:43.586Z,10.52
2022-11-07T18:49:14.152Z,10.55
2022-11-07T18:51:45.498Z,10.54
2022-11-07T18:54:14.243Z,10.52
2022-11-07T18:56:43.103Z,10.52
2022-11-07T18:59:11.728Z,10.52
2022-11-07T19:01:39.969Z,10.51
2022-11-07T19:04:10.495Z,10.53
2022-11-07T19:06:55.766Z,10.51
2022-11-07T19:09:25.988Z,10.53
2022-11-07T19:11:54.604Z,10.55
2022-11-07T19:14:22.739Z,10.56
2022-11-07T19:16:50.970Z,10.54
2022-11-07T19:19:19.241Z,10.53
2022-11-07T19:21:47.401Z,10.54
2022-11-07T19:24:15.565Z,10.53
2022-11-07T19:26:43.613Z,10.50
2022-11-07T19:29:11.981Z,10.47
2022-11-07T19:31:40.162Z,10.45
2022-11-07T19:34:08.554Z,10.41
2022-11-07T19:36:37.145Z,10.42
2022-11-07T19:39:05.434Z,10.37
2022-11-07T19:41:33.512Z,10.37
2022-11-07T19:44:04.576Z,10.38
2022-11-07T19:46:33.057Z,10.35
2022-11-07T19:49:01.107Z,10.35
2022-11-07T19:51:29.343Z,10.33
2022-11-07T19:53:59.536Z,10.33
2022-11-07T19:56:31.188Z,10.34
2022-11-07T19:59:01.615Z,10.37
2022-11-07T20:01:32.578Z,10.35
2022-11-07T20:04:02.338Z,10.35
2022-11-07T20:06:35.598Z,10.36
2022-11-07T20:09:08.550Z,10.35
2022-11-07T20:11:36.987Z,10.34
2022-11-07T20:14:05.651Z,10.33
2022-11-07T20:16:34.562Z,10.36
2022-11-07T20:19:02.897Z,10.39
2022-11-07T20:21:33.920Z,10.36
2022-11-07T20:24:02.774Z,10.33
2022-11-07T20:26:31.545Z,10.37
2022-11-07T20:29:00.038Z,10.29
2022-11-07T20:31:34.193Z,10.30
2022-11-07T20:34:05.128Z,10.34
2022-11-07T20:36:34.233Z,10.36
2022-11-07T20:39:03.152Z,10.37
2022-11-07T20:41:31.470Z,10.37
2022-11-07T20:44:06.596Z,10.41
2022-11-07T20:46:38.121Z,10.41
2022-11-07T20:49:09.188Z,10.39
2022-11-07T20:51:37.751Z,10.42
2022-11-07T20:54:06.143Z,10.36
2022-11-07T20:56:34.121Z,10.32
2022-11-07T20:59:02.103Z,10.25
2022-11-07T21:01:36.424Z,10.18
2022-11-07T21:04:07.864Z,10.17
2022-11-07T21:06:36.619Z,10.16
2022-11-07T21:09:06.183Z,10.14
2022-11-07T21:11:35.249Z,10.15
2022-11-07T21:14:03.840Z,10.11
2022-11-07T21:16:36.112Z,10.14
2022-11-07T21:19:05.422Z,10.16
2022-11-07T21:21:33.819Z,10.16
2022-11-07T21:24:02.080Z,10.18
2022-11-07T21:26:36.052Z,10.16
2022-11-07T21:29:06.557Z,10.13
2022-11-07T21:31:37.557Z,10.12
2022-11-07T21:34:11.443Z,10.12
2022-11-07T21:36:39.479Z,10.12
2022-11-07T21:39:07.775Z,10.13
2022-11-07T21:41:36.276Z,10.14
2022-11-07T21:44:04.683Z,10.13
2022-11-07T21:46:34.516Z,10.13
2022-11-07T21:49:04.427Z,10.13
2022-11-07T21:51:34.844Z,10.10
2022-11-07T21:54:05.068Z,10.08
2022-11-07T21:56:37.756Z,10.09
2022-11-07T21:59:11.573Z,10.13
2022-11-07T22:01:40.674Z,10.11
2022-11-07T22:04:12.470Z,10.08
2022-11-07T22:06:44.146Z,10.09
2022-11-07T22:09:18.037Z,10.08
2022-11-07T22:11:47.042Z,10.08
2022-11-07T22:14:21.714Z,10.06
2022-11-07T22:16:51.115Z,10.05
2022-11-07T22:19:19.545Z,10.04
2022-11-07T22:21:49.447Z,10.04
2022-11-07T22:24:17.621Z,10.10
2022-11-07T22:26:45.606Z,10.08
2022-11-07T22:29:13.521Z,10.08
2022-11-07T22:31:41.476Z,10.05
2022-11-07T22:34:09.885Z,10.02
2022-11-07T22:36:38.102Z,10.04
2022-11-07T22:39:06.186Z,10.01
2022-11-07T22:41:34.267Z,10.07
2022-11-07T22:44:02.289Z,9.97
2022-11-07T22:46:31.283Z,9.94
2022-11-07T22:49:00.361Z,9.89
2022-11-07T22:51:31.506Z,9.91
2022-11-07T22:54:12.190Z,9.91
2022-11-07T22:56:41.399Z,9.90
2022-11-07T22:59:10.952Z,9.90
2022-11-07T23:01:41.232Z,9.93
2022-11-07T23:04:14.152Z,9.95
2022-11-07T23:06:42.384Z,9.99
2022-11-07T23:09:16.242Z,9.99
2022-11-07T23:11:47.207Z,10.04
2022-11-07T23:14:19.996Z,10.08
2022-11-07T23:16:53.314Z,10.03
2022-11-07T23:19:23.688Z,10.02
2022-11-07T23:21:53.554Z,9.99
2022-11-07T23:24:22.160Z,9.98
2022-11-07T23:26:50.249Z,9.98
2022-11-07T23:29:23.045Z,9.99
2022-11-07T23:31:52.144Z,10.04
2022-11-07T23:34:22.212Z,10.10
2022-11-07T23:36:51.563Z,10.14
2022-11-07T23:39:22.687Z,10.12
2022-11-07T23:41:50.938Z,10.07
2022-11-07T23:44:18.934Z,10.03
2022-11-07T23:47:06.726Z,10.06
2022-11-07T23:49:53.226Z,10.03
2022-11-07T23:52:21.483Z,10.03
2022-11-07T23:55:08.307Z,10.05
2022-11-07T23:57:57.377Z,10.11
